KROC

Greater Rochester International Airport

Airport
ICAO code
KROC
IATA Code
ROC
Summary
ICAO Region
NAM
ICAO Territory
Location

Rochester, New York

Serving
Rochester
Elevation
559 ft
Coordinates
43° 7' 41" N , 77° 39' 58" W
KCC
Metar
KROC 061821Z 29008KT 3SM -SN BR SCT011 BKN019 OVC050 00/M03 A3008 RMK AO2 P0001 T00001028

Greater Rochester International Airport is a public use airport located 3 nm southwest of the central business district of Rochester, a city in Monroe County, New York, USA.

 

Runways

Designator Length Width Surface Rops
7/25 1341 43 ASP Yes/Yes
10/28 1676 46 ASP Yes/Yes
4/22 2439 46 ASP Yes/Yes

Airport map

Aerial View

SKYbrary Partners:

Safety knowledge contributed by: